Time;durP1;ratioP1;P1;durP2;ratioP2;P2;SDS_P1;SDS_P2;PMS_P1;PMS_P2;Temp;Humidity;BMP_temperature;BMP_pressure;BME280_temperature;BME280_humidity;BME280_pressure;Samples;Min_cycle;Max_cycle;Signal;HPM_P1;HPM_P2
2020/12/03 00:01:21;;;;;;;40.88;18.25;;;8.20;99.90;;;;;;5048309;28;20256;-72
2020/12/03 00:03:50;;;;;;;37.00;16.60;;;8.20;99.90;;;;;;5048576;28;20249;-72
2020/12/03 00:06:19;;;;;;;40.65;17.42;;;8.20;99.90;;;;;;5050601;28;20199;-71
2020/12/03 00:08:50;;;;;;;42.90;17.08;;;8.20;99.90;;;;;;5047525;28;20656;-72
2020/12/03 00:11:17;;;;;;;48.75;17.52;;;8.20;99.90;;;;;;5050850;28;20217;-71
2020/12/03 00:13:43;;;;;;;37.50;16.83;;;8.20;99.90;;;;;;5047926;28;20207;-71
2020/12/03 00:16:10;;;;;;;38.75;15.68;;;8.20;99.90;;;;;;5046281;28;20642;-71
2020/12/03 00:18:37;;;;;;;38.88;16.05;;;8.20;99.90;;;;;;5048282;28;20211;-72
2020/12/03 00:21:07;;;;;;;41.25;15.43;;;8.20;99.90;;;;;;5049724;28;20214;-71
2020/12/03 00:23:34;;;;;;;39.85;15.05;;;8.20;99.90;;;;;;5048865;28;20199;-72
2020/12/03 00:26:01;;;;;;;30.55;13.93;;;8.20;99.90;;;;;;5047396;28;20207;-72
2020/12/03 00:28:29;;;;;;;40.58;14.57;;;8.10;99.90;;;;;;5050691;28;20659;-72
2020/12/03 00:30:55;;;;;;;33.55;14.13;;;8.20;99.90;;;;;;5045367;28;20741;-71
2020/12/03 00:33:22;;;;;;;34.33;13.73;;;8.10;99.90;;;;;;5047507;28;20260;-71
2020/12/03 00:35:49;;;;;;;35.30;14.02;;;8.20;99.90;;;;;;5046248;28;20281;-72
2020/12/03 00:38:16;;;;;;;34.90;13.50;;;8.10;99.90;;;;;;5047856;28;20317;-71
2020/12/03 00:40:43;;;;;;;38.20;13.82;;;8.10;99.90;;;;;;5044590;28;20301;-71
2020/12/03 00:43:10;;;;;;;32.58;13.45;;;8.10;99.90;;;;;;5050146;28;20664;-70
2020/12/03 00:45:36;;;;;;;32.03;12.60;;;8.10;99.90;;;;;;5046591;28;20207;-72
2020/12/03 00:48:03;;;;;;;29.25;12.32;;;8.10;99.90;;;;;;5051877;28;20655;-72
2020/12/03 00:50:30;;;;;;;31.42;12.30;;;8.10;99.90;;;;;;5049442;28;20195;-71
2020/12/03 00:52:57;;;;;;;26.73;11.23;;;8.00;99.90;;;;;;5051486;28;20706;-71
2020/12/03 00:55:24;;;;;;;27.38;10.63;;;8.00;99.90;;;;;;5049583;28;20234;-71
2020/12/03 00:57:50;;;;;;;37.10;11.38;;;8.00;99.90;;;;;;5048020;28;20207;-71
2020/12/03 01:00:20;;;;;;;26.48;10.00;;;8.00;99.90;;;;;;5046728;28;20210;-71
2020/12/03 01:02:47;;;;;;;32.38;10.48;;;8.00;99.90;;;;;;5049606;28;20277;-71
2020/12/03 01:05:14;;;;;;;33.05;11.35;;;8.00;99.90;;;;;;5049288;28;20261;-72
2020/12/03 01:07:40;;;;;;;30.30;10.77;;;7.90;99.90;;;;;;5047807;28;20257;-71
2020/12/03 01:10:11;;;;;;;27.98;11.13;;;7.90;99.90;;;;;;5046269;28;20281;-71
2020/12/03 01:12:38;;;;;;;31.83;11.02;;;7.90;99.90;;;;;;5047408;28;20226;-71
2020/12/03 01:15:05;;;;;;;30.80;11.30;;;7.90;99.90;;;;;;5045899;28;20285;-72
2020/12/03 01:17:33;;;;;;;32.10;10.98;;;7.90;99.90;;;;;;5042101;28;20237;-72
2020/12/03 01:19:59;;;;;;;28.77;11.80;;;7.90;99.90;;;;;;5045645;28;20249;-71
2020/12/03 01:22:28;;;;;;;30.65;12.55;;;7.80;99.90;;;;;;5044807;28;20219;-71
2020/12/03 01:24:54;;;;;;;34.15;12.43;;;7.80;99.90;;;;;;5047216;28;20199;-72
2020/12/03 01:27:20;;;;;;;36.05;12.13;;;7.80;99.90;;;;;;5044310;28;20231;-71
2020/12/03 01:29:47;;;;;;;30.70;12.07;;;7.80;99.90;;;;;;5050046;28;20239;-71
2020/12/03 01:32:13;;;;;;;41.03;13.90;;;7.80;99.90;;;;;;5045312;28;20257;-71
2020/12/03 01:34:40;;;;;;;32.35;13.05;;;7.80;99.90;;;;;;5047605;28;20199;-71
2020/12/03 01:37:06;;;;;;;30.15;13.93;;;7.80;99.90;;;;;;5046859;28;20747;-71
2020/12/03 01:39:33;;;;;;;29.85;14.32;;;7.80;99.90;;;;;;5045114;28;20233;-72
2020/12/03 01:41:59;;;;;;;32.80;13.77;;;7.70;99.90;;;;;;5046322;28;20676;-71
2020/12/03 01:44:42;;;;;;;39.30;14.43;;;7.70;99.90;;;;;;5047294;28;20831;-71
2020/12/03 01:47:17;;;;;;;27.85;14.55;;;7.70;99.90;;;;;;5045589;28;20210;-71
2020/12/03 01:49:45;;;;;;;28.80;14.45;;;7.70;99.90;;;;;;5047771;28;20215;-70
2020/12/03 01:52:12;;;;;;;27.05;14.75;;;7.70;99.90;;;;;;5044581;28;20216;-72
2020/12/03 01:54:39;;;;;;;32.30;15.40;;;7.70;99.90;;;;;;5047826;28;20623;-71
2020/12/03 01:57:44;;;;;;;31.05;14.23;;;7.70;99.90;;;;;;5047475;28;20324;-72
2020/12/03 02:00:13;;;;;;;28.80;14.05;;;7.60;99.90;;;;;;5045541;28;20269;-71
2020/12/03 02:02:41;;;;;;;33.22;15.05;;;7.60;99.90;;;;;;5051112;28;20199;-72
2020/12/03 02:05:12;;;;;;;39.45;17.17;;;7.60;99.90;;;;;;5050009;28;20218;-71
2020/12/03 02:07:38;;;;;;;29.98;16.05;;;7.60;99.90;;;;;;5046326;28;20625;-72
2020/12/03 02:10:05;;;;;;;35.10;16.52;;;7.60;99.90;;;;;;5055441;28;20214;-72
2020/12/03 02:12:31;;;;;;;37.00;17.15;;;7.60;99.90;;;;;;5052198;28;20367;-73
2020/12/03 02:14:57;;;;;;;31.63;16.98;;;7.60;99.90;;;;;;5048378;28;20203;-72
2020/12/03 02:17:24;;;;;;;36.50;16.48;;;7.60;99.90;;;;;;5051667;28;20581;-72
2020/12/03 02:19:56;;;;;;;37.13;17.35;;;7.60;99.90;;;;;;5048512;28;20215;-72
2020/12/03 02:22:23;;;;;;;34.17;16.02;;;7.60;99.90;;;;;;5068275;28;20226;-72
2020/12/03 02:24:49;;;;;;;33.35;16.30;;;7.70;99.90;;;;;;5048457;28;20265;-71
2020/12/03 02:27:18;;;;;;;25.75;15.70;;;7.60;99.90;;;;;;5048234;28;20257;-73
2020/12/03 02:29:44;;;;;;;30.33;14.88;;;7.70;99.90;;;;;;5051277;28;20210;-73
2020/12/03 02:32:11;;;;;;;30.63;16.60;;;7.70;99.90;;;;;;5047650;28;20277;-73
2020/12/03 02:34:38;;;;;;;35.40;15.68;;;7.70;99.90;;;;;;5049675;28;20262;-73
2020/12/03 02:37:07;;;;;;;31.75;15.77;;;7.70;99.90;;;;;;5044001;28;20730;-72
2020/12/03 02:39:35;;;;;;;31.10;15.00;;;7.80;99.90;;;;;;5052459;28;20199;-72
2020/12/03 02:42:02;;;;;;;32.35;15.93;;;7.80;99.90;;;;;;5047695;28;20215;-72
2020/12/03 02:44:29;;;;;;;33.83;14.60;;;7.90;99.90;;;;;;5053835;28;20282;-72
2020/12/03 02:46:55;;;;;;;27.65;14.38;;;7.90;99.90;;;;;;5045742;28;20231;-72
2020/12/03 02:49:22;;;;;;;37.60;15.10;;;7.90;99.90;;;;;;5049264;28;20195;-72
2020/12/03 02:51:48;;;;;;;41.72;15.95;;;8.00;99.90;;;;;;5047219;28;20288;-71
2020/12/03 02:54:15;;;;;;;38.55;18.45;;;7.90;99.90;;;;;;5045648;28;20226;-72
2020/12/03 02:56:42;;;;;;;34.80;16.55;;;8.00;99.90;;;;;;5045783;28;20301;-73
2020/12/03 02:59:10;;;;;;;28.83;16.52;;;8.00;99.90;;;;;;5047379;28;20309;-72
2020/12/03 03:01:37;;;;;;;39.13;16.95;;;8.00;99.90;;;;;;5050733;28;20277;-71
2020/12/03 03:04:04;;;;;;;29.52;14.07;;;8.00;99.90;;;;;;5052508;28;20219;-72
2020/12/03 03:06:30;;;;;;;21.60;6.60;;;8.00;99.90;;;;;;5046658;28;20229;-72
2020/12/03 03:08:57;;;;;;;17.08;6.47;;;8.00;99.90;;;;;;5052791;28;20207;-73
2020/12/03 03:11:24;;;;;;;19.95;6.72;;;8.00;99.90;;;;;;5047202;28;20264;-72
2020/12/03 03:13:50;;;;;;;14.05;5.30;;;8.00;99.90;;;;;;5052865;28;20254;-72
2020/12/03 03:16:16;;;;;;;20.75;5.18;;;8.10;99.90;;;;;;5043804;28;20813;-72
2020/12/03 03:18:43;;;;;;;18.30;5.28;;;8.10;99.90;;;;;;5045938;28;20211;-73
2020/12/03 03:21:09;;;;;;;15.10;5.07;;;8.20;99.90;;;;;;5050299;28;20292;-73
2020/12/03 03:23:36;;;;;;;13.30;4.60;;;8.20;99.90;;;;;;5043811;28;20211;-72
2020/12/03 03:26:02;;;;;;;13.70;4.45;;;8.20;99.90;;;;;;5044112;28;20698;-73
2020/12/03 03:28:29;;;;;;;11.25;4.18;;;8.20;99.90;;;;;;5046407;28;20219;-74
2020/12/03 03:30:56;;;;;;;17.65;4.00;;;8.20;99.90;;;;;;5044957;28;20706;-73
2020/12/03 03:33:22;;;;;;;10.48;3.85;;;8.20;99.90;;;;;;5051072;28;20658;-69
2020/12/03 03:35:48;;;;;;;11.93;4.00;;;8.30;99.90;;;;;;5044850;28;20221;-72
2020/12/03 03:38:15;;;;;;;16.15;4.22;;;8.30;99.90;;;;;;5044757;28;20289;-74
2020/12/03 03:40:41;;;;;;;19.95;4.75;;;8.30;99.90;;;;;;5043214;28;20207;-72
2020/12/03 03:43:07;;;;;;;23.10;5.15;;;8.30;99.90;;;;;;5045322;28;20265;-72
2020/12/03 03:45:34;;;;;;;20.38;4.68;;;8.30;99.90;;;;;;5046761;28;20199;-71
2020/12/03 03:48:01;;;;;;;22.08;5.80;;;8.40;99.90;;;;;;5048549;28;20727;-72
2020/12/03 03:50:28;;;;;;;21.83;6.40;;;8.40;99.90;;;;;;5047949;28;20210;-72
2020/12/03 03:52:54;;;;;;;23.20;7.43;;;8.30;99.90;;;;;;5046599;28;20230;-72
2020/12/03 03:55:20;;;;;;;23.60;9.68;;;8.30;99.90;;;;;;5048327;28;20255;-71
2020/12/03 03:57:47;;;;;;;22.77;11.10;;;8.20;99.90;;;;;;5048096;28;20309;-74
2020/12/03 04:00:16;;;;;;;25.70;11.52;;;8.20;99.90;;;;;;5047682;28;20665;-72
2020/12/03 04:02:43;;;;;;;22.80;11.85;;;8.20;99.90;;;;;;5050466;28;20548;-72
2020/12/03 04:05:10;;;;;;;23.25;12.43;;;8.10;99.90;;;;;;5051035;28;20203;-73
2020/12/03 04:07:36;;;;;;;24.92;12.77;;;8.10;99.90;;;;;;5046830;28;20656;-72
2020/12/03 04:10:03;;;;;;;24.70;13.82;;;8.00;99.90;;;;;;5048455;28;20235;-73
2020/12/03 04:12:29;;;;;;;26.27;14.52;;;8.00;99.90;;;;;;5050188;28;20207;-72
2020/12/03 04:14:59;;;;;;;31.15;14.63;;;8.00;99.90;;;;;;5050207;28;20253;-72
2020/12/03 04:17:26;;;;;;;32.88;15.55;;;7.90;99.90;;;;;;5049701;28;20304;-71
2020/12/03 04:19:53;;;;;;;28.20;14.98;;;7.90;99.90;;;;;;5047308;28;20231;-73
2020/12/03 04:22:19;;;;;;;38.47;15.63;;;7.90;99.90;;;;;;5052349;28;20199;-73
2020/12/03 04:24:46;;;;;;;28.85;15.75;;;7.90;99.90;;;;;;5046497;28;20253;-73
2020/12/03 04:27:12;;;;;;;29.08;15.93;;;7.90;99.90;;;;;;5052776;28;20265;-74
2020/12/03 04:29:38;;;;;;;32.90;16.52;;;7.90;99.90;;;;;;5047011;28;20215;-73
2020/12/03 04:32:05;;;;;;;36.38;16.15;;;7.90;99.90;;;;;;5048703;28;20215;-73
2020/12/03 04:34:32;;;;;;;28.10;16.38;;;7.80;99.90;;;;;;5051923;28;20862;-72
2020/12/03 04:36:59;;;;;;;30.55;16.60;;;7.80;99.90;;;;;;5043957;28;20272;-73
2020/12/03 04:39:25;;;;;;;35.33;18.23;;;7.80;99.90;;;;;;5048636;28;20757;-77
2020/12/03 04:41:52;;;;;;;33.55;18.08;;;7.80;99.90;;;;;;5061158;28;20281;-72
2020/12/03 04:44:22;;;;;;;37.28;18.55;;;7.80;99.90;;;;;;5046488;28;20280;-74
2020/12/03 04:47:03;;;;;;;31.67;18.67;;;7.80;99.90;;;;;;5045533;28;20273;-74
2020/12/03 04:49:35;;;;;;;34.30;18.08;;;7.80;99.90;;;;;;5051147;28;20214;-72
2020/12/03 04:52:34;;;;;;;37.33;19.80;;;7.80;99.90;;;;;;5049313;28;20276;-74
2020/12/03 04:55:16;;;;;;;41.35;20.08;;;7.80;99.90;;;;;;5045644;28;20665;-73
2020/12/03 04:57:46;;;;;;;35.35;20.38;;;7.80;99.90;;;;;;5045945;28;20680;-73
2020/12/03 05:00:24;;;;;;;33.10;19.85;;;7.70;99.90;;;;;;5046201;28;20269;-73
2020/12/03 05:03:13;;;;;;;41.50;20.75;;;7.70;99.90;;;;;;5046202;28;20299;-73
2020/12/03 05:05:49;;;;;;;38.40;21.70;;;7.70;99.90;;;;;;5054546;28;20199;-73
2020/12/03 05:08:26;;;;;;;39.25;20.27;;;7.70;99.90;;;;;;5045587;28;20289;-73
2020/12/03 05:10:53;;;;;;;38.28;20.92;;;7.70;99.90;;;;;;5046147;28;20587;-73
2020/12/03 05:13:22;;;;;;;39.10;20.58;;;7.70;99.90;;;;;;5048144;28;20206;-72
2020/12/03 05:15:51;;;;;;;38.30;20.75;;;7.70;99.90;;;;;;5046027;28;20615;-73
2020/12/03 05:18:33;;;;;;;40.10;21.33;;;7.70;99.90;;;;;;5053036;28;20195;-73
2020/12/03 05:21:02;;;;;;;38.15;21.15;;;7.70;99.90;;;;;;5046443;28;20199;-73
2020/12/03 05:23:31;;;;;;;34.90;20.30;;;7.70;99.90;;;;;;5047437;28;20199;-72
2020/12/03 05:25:59;;;;;;;39.47;21.85;;;7.70;99.90;;;;;;5046030;28;20549;-73
2020/12/03 05:28:36;;;;;;;35.33;21.38;;;7.70;99.90;;;;;;5052123;28;20198;-73
2020/12/03 05:31:28;;;;;;;41.15;21.80;;;7.70;99.90;;;;;;5045090;28;20831;-73
2020/12/03 05:33:58;;;;;;;39.42;21.75;;;7.70;99.90;;;;;;5047147;28;20253;-73
2020/12/03 05:36:30;;;;;;;41.38;22.10;;;7.70;99.90;;;;;;5046224;28;20219;-73
2020/12/03 05:39:00;;;;;;;36.92;21.05;;;7.70;99.90;;;;;;5046412;28;20292;-74
2020/12/03 05:41:30;;;;;;;38.80;21.58;;;7.70;99.90;;;;;;5046494;28;20253;-74
2020/12/03 05:43:56;;;;;;;42.38;23.23;;;7.70;99.90;;;;;;5046745;28;20235;-73
2020/12/03 05:46:25;;;;;;;42.13;22.75;;;7.70;99.90;;;;;;5045602;28;20203;-72
2020/12/03 05:48:58;;;;;;;45.17;22.73;;;7.70;99.90;;;;;;5044879;28;20218;-75
2020/12/03 05:51:28;;;;;;;39.72;21.95;;;7.70;99.90;;;;;;5044081;28;20560;-74
2020/12/03 05:54:00;;;;;;;37.63;22.15;;;7.70;99.90;;;;;;5044160;28;20237;-72
2020/12/03 05:56:29;;;;;;;42.28;22.40;;;7.70;99.90;;;;;;5046116;28;20622;-73
2020/12/03 05:58:55;;;;;;;41.30;22.42;;;7.70;99.90;;;;;;5047322;28;20205;-72
2020/12/03 06:01:24;;;;;;;44.00;23.17;;;7.70;99.90;;;;;;5054091;28;20829;-73
2020/12/03 06:04:06;;;;;;;42.05;21.52;;;7.70;99.90;;;;;;5051652;28;20228;-72
2020/12/03 06:07:02;;;;;;;47.85;22.05;;;7.70;99.90;;;;;;5044105;28;20202;-74
2020/12/03 06:09:40;;;;;;;33.78;20.38;;;7.70;99.90;;;;;;5053662;28;20264;-78
2020/12/03 06:12:20;;;;;;;38.22;20.73;;;7.70;99.90;;;;;;5048202;28;20203;-74
2020/12/03 06:15:13;;;;;;;36.53;19.85;;;7.70;99.90;;;;;;5043812;28;20208;-76
2020/12/03 06:17:53;;;;;;;40.53;19.75;;;7.70;99.90;;;;;;5045641;28;20225;-75
2020/12/03 06:20:36;;;;;;;33.55;17.95;;;7.70;99.90;;;;;;5048627;28;20209;-77
2020/12/03 06:23:39;;;;;;;26.42;16.23;;;7.70;99.90;;;;;;5045768;28;20207;-76
2020/12/03 06:26:20;;;;;;;32.33;15.88;;;7.70;99.90;;;;;;5044380;28;20203;-76
2020/12/03 06:29:04;;;;;;;25.33;15.60;;;7.70;99.90;;;;;;5046386;28;20820;-76
2020/12/03 06:31:44;;;;;;;25.52;15.80;;;7.70;99.90;;;;;;5045720;28;20615;-75
2020/12/03 06:34:20;;;;;;;28.08;14.95;;;7.70;99.90;;;;;;5047013;28;20199;-76
2020/12/03 06:36:55;;;;;;;29.08;17.00;;;7.70;99.90;;;;;;5043717;28;20283;-74
2020/12/03 06:39:34;;;;;;;26.83;15.60;;;7.70;99.90;;;;;;5045177;28;20387;-73
2020/12/03 06:42:09;;;;;;;25.00;14.38;;;7.70;99.90;;;;;;5045707;28;20195;-74
2020/12/03 06:44:40;;;;;;;24.05;13.57;;;7.70;99.90;;;;;;5054559;28;20264;-74
2020/12/03 06:47:45;;;;;;;28.13;15.07;;;7.70;99.90;;;;;;5047939;28;20211;-73
2020/12/03 06:50:28;;;;;;;25.77;13.98;;;7.70;99.90;;;;;;5048467;28;20295;-78
2020/12/03 06:53:25;;;;;;;29.10;14.65;;;7.60;99.90;;;;;;5044440;28;20214;-74
2020/12/03 06:56:40;;;;;;;26.80;15.23;;;7.60;99.90;;;;;;5042763;28;20652;-74
2020/12/03 06:59:42;;;;;;;27.42;14.65;;;7.60;99.90;;;;;;5033356;28;20219;-75
2020/12/03 07:02:50;;;;;;;25.67;15.20;;;7.60;99.90;;;;;;5043149;28;20206;-73
2020/12/03 07:05:59;;;;;;;27.25;16.50;;;7.50;99.90;;;;;;5004953;28;20312;-73
2020/12/03 07:08:51;;;;;;;30.70;18.25;;;7.60;99.90;;;;;;5046035;28;20207;-76
2020/12/03 07:11:51;;;;;;;31.80;19.58;;;7.60;99.90;;;;;;5047676;28;20200;-74
2020/12/03 07:14:51;;;;;;;34.55;20.92;;;7.60;99.90;;;;;;5050129;28;20200;-72
2020/12/03 07:17:57;;;;;;;35.25;21.75;;;7.60;99.90;;;;;;5046423;28;20215;-72
2020/12/03 07:20:57;;;;;;;35.90;23.10;;;7.70;99.90;;;;;;5064667;28;20226;-71
2020/12/03 07:23:38;;;;;;;39.47;23.45;;;7.70;99.90;;;;;;5046304;28;20272;-74
2020/12/03 07:26:21;;;;;;;38.88;23.92;;;7.70;99.90;;;;;;5056129;28;20210;-73
2020/12/03 07:28:48;;;;;;;38.50;24.00;;;7.70;99.90;;;;;;5047092;28;20211;-75
2020/12/03 07:31:22;;;;;;;40.45;25.20;;;7.70;99.90;;;;;;5050935;28;20215;-72
2020/12/03 07:34:08;;;;;;;45.60;26.50;;;7.70;99.90;;;;;;5053373;28;20211;-74
2020/12/03 07:36:43;;;;;;;43.10;26.58;;;7.80;99.90;;;;;;5054416;28;20298;-73
2020/12/03 07:39:18;;;;;;;40.60;24.75;;;7.80;99.90;;;;;;5051483;28;20585;-73
2020/12/03 07:41:50;;;;;;;43.78;25.83;;;7.80;99.90;;;;;;5047318;28;20276;-71
2020/12/03 07:44:29;;;;;;;46.65;26.10;;;7.80;99.90;;;;;;5052923;28;20214;-75
2020/12/03 07:47:16;;;;;;;48.95;27.17;;;7.80;99.90;;;;;;5047491;28;20205;-74
2020/12/03 07:49:45;;;;;;;45.63;27.65;;;7.80;99.90;;;;;;5048011;28;20211;-74
2020/12/03 07:52:27;;;;;;;48.25;27.88;;;7.90;99.90;;;;;;5047891;28;20656;-75
2020/12/03 07:55:14;;;;;;;50.63;29.10;;;7.90;99.90;;;;;;5071925;28;20211;-75
2020/12/03 07:57:54;;;;;;;51.85;29.58;;;7.90;99.90;;;;;;5046661;28;20231;-75
2020/12/03 08:00:43;;;;;;;53.55;31.20;;;7.90;99.90;;;;;;5048315;28;20229;-75
2020/12/03 08:03:10;;;;;;;51.00;30.08;;;8.00;99.90;;;;;;5055688;28;20203;-75
2020/12/03 08:05:55;;;;;;;53.03;30.40;;;7.90;99.90;;;;;;5054864;28;20211;-77
2020/12/03 08:08:30;;;;;;;53.17;29.83;;;7.90;99.90;;;;;;5048301;28;20282;-78
2020/12/03 08:10:57;;;;;;;51.10;28.90;;;8.00;99.90;;;;;;5052384;28;20664;-77
2020/12/03 08:13:29;;;;;;;55.53;31.67;;;7.90;99.90;;;;;;5048858;28;20203;-74
2020/12/03 08:15:58;;;;;;;58.72;32.15;;;7.90;99.90;;;;;;5052966;28;20195;-74
2020/12/03 08:18:36;;;;;;;60.28;31.75;;;7.90;99.90;;;;;;5055918;28;20218;-74
2020/12/03 08:21:03;;;;;;;63.35;33.85;;;8.00;99.90;;;;;;5047116;28;20214;-72
2020/12/03 08:23:29;;;;;;;61.03;34.75;;;8.00;99.90;;;;;;5049155;28;20257;-73
2020/12/03 08:25:56;;;;;;;63.85;34.22;;;8.00;99.90;;;;;;5046682;28;20257;-77
2020/12/03 08:28:25;;;;;;;59.35;34.85;;;8.00;99.90;;;;;;5053377;28;20199;-81
2020/12/03 08:30:52;;;;;;;59.20;33.50;;;8.00;99.90;;;;;;5044109;28;20200;-73
2020/12/03 08:33:27;;;;;;;52.72;31.58;;;8.10;99.90;;;;;;5051949;28;20208;-76
2020/12/03 08:35:56;;;;;;;58.15;32.47;;;8.00;99.90;;;;;;5050687;28;20216;-80
2020/12/03 08:38:25;;;;;;;59.15;32.47;;;8.00;99.90;;;;;;5055457;28;20266;-73
2020/12/03 08:40:53;;;;;;;55.97;30.40;;;8.10;99.90;;;;;;5064227;28;20214;-73
2020/12/03 08:43:22;;;;;;;51.03;27.75;;;8.10;99.90;;;;;;5047620;28;20206;-73
2020/12/03 08:45:53;;;;;;;53.85;28.35;;;8.10;99.90;;;;;;5047348;28;20239;-74
2020/12/03 08:48:25;;;;;;;51.65;28.38;;;8.10;99.90;;;;;;5045077;28;20203;-76
2020/12/03 08:51:00;;;;;;;54.10;29.02;;;8.10;99.90;;;;;;5048538;28;20291;-77
2020/12/03 08:53:28;;;;;;;46.55;26.25;;;8.10;99.90;;;;;;5046283;28;20230;-73
2020/12/03 08:55:58;;;;;;;49.22;27.38;;;8.10;99.90;;;;;;5046828;28;20207;-75
2020/12/03 08:58:26;;;;;;;48.80;26.85;;;8.10;99.90;;;;;;5049611;28;20215;-75
2020/12/03 09:00:59;;;;;;;44.10;25.38;;;8.10;99.90;;;;;;5048085;28;20265;-76
2020/12/03 09:03:26;;;;;;;48.45;26.38;;;8.10;99.90;;;;;;5046526;28;20207;-81
2020/12/03 09:05:53;;;;;;;44.80;22.20;;;8.10;99.90;;;;;;5043480;28;20604;-79
2020/12/03 09:08:20;;;;;;;33.67;19.45;;;8.10;99.90;;;;;;5049127;28;20290;-74
2020/12/03 09:10:50;;;;;;;35.42;18.70;;;8.10;99.90;;;;;;5045434;28;20664;-73
2020/12/03 09:13:18;;;;;;;31.70;17.55;;;8.10;99.90;;;;;;5050635;28;20747;-75
2020/12/03 09:15:46;;;;;;;30.38;15.23;;;8.10;99.90;;;;;;5046613;28;20344;-77
2020/12/03 09:18:13;;;;;;;25.67;14.43;;;8.00;99.90;;;;;;5045532;28;20211;-74
2020/12/03 09:20:44;;;;;;;23.08;12.90;;;8.00;99.90;;;;;;5048359;28;20580;-73
2020/12/03 09:23:15;;;;;;;18.50;12.00;;;8.00;99.90;;;;;;5060497;28;20624;-72
2020/12/03 09:25:42;;;;;;;20.45;11.82;;;8.00;99.90;;;;;;5046859;28;20203;-75
2020/12/03 09:28:09;;;;;;;20.88;10.65;;;8.00;99.90;;;;;;5045898;28;20740;-74
2020/12/03 09:30:36;;;;;;;16.48;9.60;;;8.00;99.90;;;;;;5045306;28;20222;-74
2020/12/03 09:33:04;;;;;;;16.33;9.60;;;8.00;99.90;;;;;;5045834;28;20206;-75
2020/12/03 09:35:33;;;;;;;18.90;10.60;;;8.00;99.90;;;;;;5048824;28;20207;-74
2020/12/03 09:38:02;;;;;;;21.10;11.52;;;8.00;99.90;;;;;;5047473;28;20222;-74
2020/12/03 09:40:29;;;;;;;19.80;11.27;;;8.00;99.90;;;;;;5046195;28;20256;-74
2020/12/03 09:42:56;;;;;;;21.08;11.85;;;8.00;99.90;;;;;;5049018;28;20203;-74
2020/12/03 09:45:31;;;;;;;23.00;12.35;;;8.00;99.90;;;;;;5045728;28;20211;-74
2020/12/03 09:48:00;;;;;;;22.83;13.05;;;8.10;99.90;;;;;;5058095;28;20199;-74
2020/12/03 09:50:26;;;;;;;25.88;14.52;;;8.10;99.90;;;;;;5047894;28;20218;-75
2020/12/03 09:52:54;;;;;;;31.17;17.42;;;8.10;99.90;;;;;;5046407;28;20547;-75
2020/12/03 09:55:22;;;;;;;31.13;18.08;;;8.10;99.90;;;;;;5049272;28;20226;-73
2020/12/03 09:57:55;;;;;;;42.60;20.23;;;8.20;99.90;;;;;;5045774;28;20343;-74
2020/12/03 10:00:28;;;;;;;41.10;21.83;;;8.10;99.90;;;;;;5048778;28;20206;-74
2020/12/03 10:03:43;;;;;;;42.08;22.67;;;8.10;99.90;;;;;;5046301;28;20199;-74
2020/12/03 10:06:16;;;;;;;44.92;24.67;;;8.10;99.90;;;;;;5048849;28;20691;-75
2020/12/03 10:09:04;;;;;;;49.88;28.60;;;8.20;99.90;;;;;;5045928;28;20197;-75
2020/12/03 10:12:10;;;;;;;50.67;27.73;;;8.20;99.90;;;;;;5046306;28;20675;-74
2020/12/03 10:15:07;;;;;;;60.25;30.85;;;8.20;99.90;;;;;;5044222;28;20206;-74
2020/12/03 10:17:43;;;;;;;56.90;29.65;;;8.10;99.90;;;;;;4999230;28;20668;-74
2020/12/03 10:20:10;;;;;;;60.65;31.52;;;8.10;99.90;;;;;;5045485;28;20207;-74
2020/12/03 10:22:44;;;;;;;57.38;32.40;;;8.10;99.90;;;;;;5045264;28;20207;-75
2020/12/03 10:25:17;;;;;;;65.00;34.00;;;8.10;99.90;;;;;;5048387;28;20251;-74
2020/12/03 10:28:00;;;;;;;60.38;32.78;;;8.10;99.90;;;;;;5042162;28;20199;-75
2020/12/03 10:30:35;;;;;;;62.47;33.03;;;8.20;99.90;;;;;;5062397;28;20214;-74
2020/12/03 10:33:08;;;;;;;62.10;32.85;;;8.20;99.90;;;;;;5044942;28;20215;-74
2020/12/03 10:35:36;;;;;;;58.85;32.50;;;8.10;99.90;;;;;;5048657;28;20202;-74
2020/12/03 10:38:05;;;;;;;60.78;33.28;;;8.10;99.90;;;;;;5044882;28;20236;-74
2020/12/03 10:40:34;;;;;;;59.88;32.85;;;8.10;99.90;;;;;;5059219;28;20692;-74
2020/12/03 10:43:07;;;;;;;60.15;32.15;;;8.20;99.90;;;;;;5048119;28;20739;-74
2020/12/03 10:45:37;;;;;;;63.88;34.75;;;8.10;99.90;;;;;;5045173;28;20203;-74
2020/12/03 10:48:11;;;;;;;66.13;34.88;;;8.10;99.90;;;;;;5044681;28;20284;-74
2020/12/03 10:50:56;;;;;;;62.15;32.88;;;8.10;99.90;;;;;;5044973;28;20231;-74
2020/12/03 10:53:24;;;;;;;61.33;32.80;;;8.20;99.90;;;;;;5045938;28;20207;-74
2020/12/03 10:55:58;;;;;;;61.13;31.98;;;8.10;99.90;;;;;;5047493;28;20203;-74
2020/12/03 10:58:35;;;;;;;64.53;32.25;;;8.20;99.90;;;;;;5049865;28;20272;-75
2020/12/03 11:01:06;;;;;;;64.22;32.22;;;8.20;99.90;;;;;;5048060;28;20209;-74
2020/12/03 11:03:36;;;;;;;68.03;32.65;;;8.10;99.90;;;;;;5049804;28;20606;-74
2020/12/03 11:06:03;;;;;;;60.00;32.60;;;8.10;99.90;;;;;;5045168;28;20207;-74
2020/12/03 11:08:36;;;;;;;61.78;32.60;;;8.20;99.90;;;;;;5050752;28;21867;-75
2020/12/03 11:11:04;;;;;;;64.85;33.33;;;8.20;99.90;;;;;;5046954;28;20221;-76
2020/12/03 11:13:31;;;;;;;60.55;32.08;;;8.20;99.90;;;;;;5048600;28;20684;-76
2020/12/03 11:16:02;;;;;;;65.22;32.15;;;8.20;99.90;;;;;;5047173;28;20214;-75
2020/12/03 11:18:32;;;;;;;61.05;30.98;;;8.20;99.90;;;;;;5047392;28;21371;-75
2020/12/03 11:21:00;;;;;;;58.47;30.83;;;8.20;99.90;;;;;;5048724;28;20207;-75
2020/12/03 11:23:31;;;;;;;53.92;29.63;;;8.20;99.90;;;;;;5055042;28;20210;-75
2020/12/03 11:26:05;;;;;;;55.10;30.50;;;8.20;99.90;;;;;;5048615;28;20206;-75
2020/12/03 11:28:35;;;;;;;58.35;30.85;;;8.20;99.90;;;;;;5048543;28;20203;-76
2020/12/03 11:31:05;;;;;;;51.10;29.55;;;8.20;99.90;;;;;;5048128;28;20250;-75
2020/12/03 11:33:36;;;;;;;51.03;27.90;;;8.20;99.90;;;;;;5053512;28;20218;-75
2020/12/03 11:36:11;;;;;;;45.85;26.55;;;8.20;99.90;;;;;;5048160;28;20203;-76
2020/12/03 11:38:39;;;;;;;41.75;25.40;;;8.20;99.90;;;;;;5047493;28;20230;-75
2020/12/03 11:41:12;;;;;;;42.13;25.65;;;8.20;99.90;;;;;;5048482;28;20203;-75
2020/12/03 11:49:13;;;;;;;38.28;24.45;;;8.20;99.90;;;;;;5052102;28;20255;-75
2020/12/03 11:51:40;;;;;;;35.85;22.60;;;8.20;99.90;;;;;;5047221;28;20285;-75
2020/12/03 11:54:07;;;;;;;33.55;21.80;;;8.20;99.90;;;;;;5048863;28;20211;-76
2020/12/03 11:56:35;;;;;;;37.20;23.80;;;8.20;99.90;;;;;;5050878;28;20206;-77
2020/12/03 11:59:16;;;;;;;35.22;21.52;;;8.20;99.90;;;;;;5046626;28;20214;-77
2020/12/03 12:01:50;;;;;;;32.90;21.23;;;8.30;99.90;;;;;;5049517;28;20249;-76
2020/12/03 12:04:19;;;;;;;30.52;19.83;;;8.30;99.90;;;;;;5055295;28;20255;-77
2020/12/03 12:06:56;;;;;;;30.60;20.42;;;8.30;99.90;;;;;;5056943;28;20652;-78
2020/12/03 12:09:26;;;;;;;29.23;19.20;;;8.20;99.90;;;;;;5048836;28;20203;-77
2020/12/03 12:11:52;;;;;;;29.33;18.70;;;8.20;99.90;;;;;;5051070;28;20289;-77
2020/12/03 12:14:20;;;;;;;27.33;18.38;;;8.20;99.90;;;;;;5052520;28;20203;-76
2020/12/03 12:16:46;;;;;;;26.77;18.23;;;8.20;99.90;;;;;;5049397;28;20203;-76
2020/12/03 12:19:12;;;;;;;29.50;18.55;;;8.20;99.90;;;;;;5052919;28;20207;-74
2020/12/03 12:21:38;;;;;;;27.15;17.98;;;8.20;99.90;;;;;;5046963;28;20206;-75
2020/12/03 12:24:05;;;;;;;26.08;17.88;;;8.10;99.90;;;;;;5047309;28;20553;-72
2020/12/03 12:26:31;;;;;;;27.98;18.85;;;8.10;99.90;;;;;;5048731;28;20237;-75
2020/12/03 12:28:57;;;;;;;29.23;18.42;;;8.10;99.90;;;;;;5047324;28;20245;-75
2020/12/03 12:31:24;;;;;;;33.92;19.67;;;8.10;99.90;;;;;;5048639;28;20857;-77
2020/12/03 12:33:51;;;;;;;29.60;19.20;;;8.10;99.90;;;;;;5062353;28;20211;-75
2020/12/03 12:36:17;;;;;;;29.40;19.48;;;8.10;99.90;;;;;;5047018;28;20612;-75
2020/12/03 12:38:43;;;;;;;31.17;19.98;;;8.10;99.90;;;;;;5053475;28;20215;-75
2020/12/03 12:41:10;;;;;;;32.13;20.10;;;8.10;99.90;;;;;;5048703;28;20713;-75
2020/12/03 12:43:36;;;;;;;43.22;21.38;;;8.10;99.90;;;;;;5055608;28;20219;-75
2020/12/03 12:46:03;;;;;;;30.92;20.30;;;8.10;99.90;;;;;;5047466;28;20203;-73
2020/12/03 12:48:30;;;;;;;34.78;20.92;;;8.10;99.90;;;;;;5047162;28;20207;-72
2020/12/03 12:50:56;;;;;;;31.75;20.08;;;8.10;99.90;;;;;;5045366;28;20200;-72
2020/12/03 12:53:22;;;;;;;34.08;22.05;;;8.10;99.90;;;;;;5047115;28;20239;-72
2020/12/03 12:55:49;;;;;;;38.58;21.42;;;8.00;99.90;;;;;;5046364;28;20656;-73
2020/12/03 12:58:15;;;;;;;37.20;21.40;;;8.00;99.90;;;;;;5045237;28;20227;-73
2020/12/03 13:00:41;;;;;;;36.75;22.17;;;8.10;99.90;;;;;;5046636;28;20207;-71
2020/12/03 13:03:09;;;;;;;39.80;21.88;;;8.10;99.90;;;;;;5044724;28;20222;-72
2020/12/03 13:05:36;;;;;;;36.42;22.33;;;8.10;99.90;;;;;;5047080;28;20283;-72
2020/12/03 13:08:03;;;;;;;34.78;22.23;;;8.10;99.90;;;;;;5044844;28;20590;-71